Mid Fortune — ZGCG8 — position and weather

sailwx.info

Track history (hours):
 
Tides and Currents Weather Stations Pressure Air Temp Water Temp Dewpoint Dewpoint Depression Visibility Wind Speed Wind Dir Waves Ship Positions

Mid Fortune

Last reported at 2017-Nov-23 07:28 UTC. Time now 2017-Nov-23 07:47 UTC.
Position N 51°53' E 004°18'.

Length 147 m; draft 7.1 m.

Type: Ship (hazmat cat C). MMSI: 319182000.

Date/timePositionNaut miles runAvg speedWind from/ knotsBaromVisibWave heightAir tempDewpointWater temp
2017-Nov-23 07:28N 51°53' E 004°18'0 0.0
2017-Nov-23 06:58N 51°53' E 004°18'0 0.0
2017-Nov-23 06:28N 51°53' E 004°18'0 0.0
2017-Nov-23 05:55N 51°53' E 004°18'0 0.0
2017-Nov-23 05:31N 51°53' E 004°18'0 0.0
2017-Nov-23 04:58N 51°53' E 004°18'0 0.0
2017-Nov-23 04:28N 51°53' E 004°18'0 0.0
2017-Nov-23 03:58N 51°53' E 004°18'0 0.0
2017-Nov-23 03:31N 51°53' E 004°18'0 0.0
2017-Nov-23 02:58N 51°53' E 004°18'0 0.0
2017-Nov-23 02:28N 51°53' E 004°18'0 0.0
2017-Nov-23 01:58N 51°53' E 004°18'0 0.0
2017-Nov-23 01:28N 51°53' E 004°18'0 0.0
2017-Nov-23 00:58N 51°53' E 004°18'0 0.0
2017-Nov-23 00:28N 51°53' E 004°18'0 0.0
2017-Nov-22 23:58N 51°53' E 004°18'0 0.0
2017-Nov-22 23:28N 51°53' E 004°18'0 0.0
2017-Nov-22 22:58N 51°53' E 004°18'0 0.0
2017-Nov-22 22:28N 51°53' E 004°18'0 0.0
2017-Nov-22 21:52N 51°53' E 004°18'0 0.0
2017-Nov-22 21:31N 51°53' E 004°18'0 0.0
2017-Nov-22 20:58N 51°53' E 004°18'0 0.0
2017-Nov-22 20:28N 51°53' E 004°18'0 0.0
2017-Nov-22 19:58N 51°53' E 004°18'0 0.0
2017-Nov-22 19:28N 51°53' E 004°18'  
2017-Nov-20 00:13N 49°45' W 003°09'211.3
2017-Nov-20 00:00N 49°43' W 003°12'611.4
2017-Nov-19 23:30N 49°40' W 003°20'611.5
2017-Nov-19 23:00N 49°38' W 003°28'611.7
2017-Nov-19 22:30N 49°35' W 003°36'611.8
2017-Nov-19 22:00N 49°32' W 003°44'1712.1
2017-Nov-19 20:34N 49°24' W 004°07'1112.6
2017-Nov-19 19:43N 49°19' W 004°22'312.9
2017-Nov-19 19:29N 49°17' W 004°26'713.1
2017-Nov-19 18:57N 49°13' W 004°35'613.4
2017-Nov-19 18:30N 49°11' W 004°43'713.7
2017-Nov-19 18:00N 49°08' W 004°52'1013.7
2017-Nov-19 17:16N 49°02' W 005°05'413.9
2017-Nov-19 17:00N 48°59' W 005°09'714.1
2017-Nov-19 16:30N 48°55' W 005°18'714.4
2017-Nov-19 16:00N 48°51' W 005°27'714.3
2017-Nov-19 15:30N 48°47' W 005°35'714.2
2017-Nov-19 15:00N 48°40' W 005°41'714.2
2017-Nov-19 14:29N 48°34' W 005°47'713.8
2017-Nov-19 13:59N 48°29' W 005°53'713.6
2017-Nov-19 13:27N 48°22' W 005°58'613.4
2017-Nov-19 12:59N 48°17' W 006°03'713.1
2017-Nov-19 12:28N 48°11' W 006°08'812.8
2017-Nov-19 11:50N 48°04' W 006°14'1412.4
2017-Nov-19 10:41N 47°52' W 006°25'512.2
2017-Nov-19 10:15N 47°47' W 006°29'511.9
2017-Nov-19 09:50N 47°43' W 006°33'411.7
2017-Nov-19 09:28N 47°39' W 006°35'611.4
2017-Nov-19 08:58N 47°34' W 006°39'711.9
2017-Nov-19 08:22N 47°28' W 006°44'1412.7
2017-Nov-19 07:17N 47°16' W 006°54'512.7
2017-Nov-19 06:52N 47°11' W 006°58'37511.7
2017-Nov-17 22:54N 41°19' W 009°57'512.9
2017-Nov-17 22:31N 41°14' W 009°57'1012.4
2017-Nov-17 21:40N 41°03' W 009°56'412.0
2017-Nov-17 21:22N 40°59' W 009°56'612.3
2017-Nov-17 20:52N 40°53' W 009°56'712.1
2017-Nov-17 20:16N 40°46' W 009°56'312.2
2017-Nov-17 19:59N 40°43' W 009°56'612.0
2017-Nov-17 19:28N 40°37' W 009°57'611.8
2017-Nov-17 19:00N 40°31' W 009°57'612.1
2017-Nov-17 18:30N 40°25' W 009°57'1011.9
2017-Nov-17 17:41N 40°15' W 009°56'212.0
2017-Nov-17 17:30N 40°13' W 009°56'612.3
2017-Nov-17 17:00N 40°07' W 009°56'712.4
2017-Nov-17 16:26N 39°60' W 009°56'912.3
2017-Nov-17 15:42N 39°51' W 009°56'212.1
2017-Nov-17 15:31N 39°49' W 009°56'711.9
2017-Nov-17 14:57N 39°42' W 009°56'712.1
2017-Nov-17 14:22N 39°35' W 009°56'712.0
2017-Nov-17 13:46N 39°28' W 009°56'312.2
2017-Nov-17 13:30N 39°24' W 009°56'612.3
2017-Nov-17 13:01N 39°18' W 009°56'612.8
2017-Nov-17 12:31N 39°12' W 009°56'612.7
2017-Nov-17 12:01N 39°06' W 009°56'612.7
2017-Nov-17 11:31N 38°59' W 009°56'612.8
2017-Nov-17 11:01N 38°53' W 009°56'612.7
2017-Nov-17 10:30N 38°46' W 009°57'612.4
2017-Nov-17 10:00N 38°40' W 009°56'612.4
2017-Nov-17 09:30N 38°34' W 009°54'612.3
2017-Nov-17 09:01N 38°28' W 009°52'611.8
2017-Nov-17 08:30N 38°23' W 009°51'611.8
2017-Nov-17 08:01N 38°17' W 009°49'611.9
2017-Nov-17 07:31N 38°11' W 009°48'612.2
2017-Nov-17 07:00N 38°05' W 009°45'612.4
2017-Nov-17 06:30N 37°59' W 009°44'612.4
2017-Nov-17 06:00N 37°53' W 009°42'612.5
2017-Nov-17 05:30N 37°47' W 009°41'612.5
2017-Nov-17 05:00N 37°41' W 009°39'612.7
2017-Nov-17 04:31N 37°35' W 009°37'713.0
2017-Nov-17 04:00N 37°28' W 009°35'612.8
2017-Nov-17 03:30N 37°22' W 009°33'612.5
2017-Nov-17 02:59N 37°16' W 009°31'912.7
2017-Nov-17 02:19N 37°07' W 009°29'512.7
2017-Nov-17 01:53N 37°02' W 009°28'812.3
2017-Nov-17 01:12N 36°54' W 009°25'411.8
2017-Nov-17 00:52N 36°50' W 009°23'512.4
2017-Nov-17 00:28N 36°47' W 009°19'612.5
2017-Nov-16 23:59N 36°42' W 009°14'612.3
2017-Nov-16 23:30N 36°40' W 009°07'612.9
2017-Nov-16 23:01N 36°38' W 008°60'612.7
2017-Nov-16 22:30N 36°36' W 008°52'612.8
2017-Nov-16 22:00N 36°35' W 008°44'612.9
2017-Nov-16 21:30N 36°34' W 008°36'1912.4
2017-Nov-16 19:58N 36°32' W 008°12'  
Track history (hours):
 
Tides and Currents Weather Stations Pressure Air Temp Water Temp Dewpoint Dewpoint Depression Visibility Wind Speed Wind Dir Waves Ship Positions

Mid Fortune

Last reported at 2017-Nov-23 07:28 UTC. Time now 2017-Nov-23 07:47 UTC.
Position N 51°53' E 004°18'.

Length 147 m; draft 7.1 m.

Type: Ship (hazmat cat C). MMSI: 319182000.

Date/timePositionNaut miles runAvg speedWind from/ knotsBaromVisibWave heightAir tempDewpointWater temp
2017-Nov-23 07:28N 51°53' E 004°18'0 0.0
2017-Nov-23 06:58N 51°53' E 004°18'0 0.0
2017-Nov-23 06:28N 51°53' E 004°18'0 0.0
2017-Nov-23 05:55N 51°53' E 004°18'0 0.0
2017-Nov-23 05:31N 51°53' E 004°18'0 0.0
2017-Nov-23 04:58N 51°53' E 004°18'0 0.0
2017-Nov-23 04:28N 51°53' E 004°18'0 0.0
2017-Nov-23 03:58N 51°53' E 004°18'0 0.0
2017-Nov-23 03:31N 51°53' E 004°18'0 0.0
2017-Nov-23 02:58N 51°53' E 004°18'0 0.0
2017-Nov-23 02:28N 51°53' E 004°18'0 0.0
2017-Nov-23 01:58N 51°53' E 004°18'0 0.0
2017-Nov-23 01:28N 51°53' E 004°18'0 0.0
2017-Nov-23 00:58N 51°53' E 004°18'0 0.0
2017-Nov-23 00:28N 51°53' E 004°18'0 0.0
2017-Nov-22 23:58N 51°53' E 004°18'0 0.0
2017-Nov-22 23:28N 51°53' E 004°18'0 0.0
2017-Nov-22 22:58N 51°53' E 004°18'0 0.0
2017-Nov-22 22:28N 51°53' E 004°18'0 0.0
2017-Nov-22 21:52N 51°53' E 004°18'0 0.0
2017-Nov-22 21:31N 51°53' E 004°18'0 0.0
2017-Nov-22 20:58N 51°53' E 004°18'0 0.0
2017-Nov-22 20:28N 51°53' E 004°18'0 0.0
2017-Nov-22 19:58N 51°53' E 004°18'0 0.0
2017-Nov-22 19:28N 51°53' E 004°18'  
2017-Nov-20 00:13N 49°45' W 003°09'211.3
2017-Nov-20 00:00N 49°43' W 003°12'611.4
2017-Nov-19 23:30N 49°40' W 003°20'611.5
2017-Nov-19 23:00N 49°38' W 003°28'611.7
2017-Nov-19 22:30N 49°35' W 003°36'611.8
2017-Nov-19 22:00N 49°32' W 003°44'1712.1
2017-Nov-19 20:34N 49°24' W 004°07'1112.6
2017-Nov-19 19:43N 49°19' W 004°22'312.9
2017-Nov-19 19:29N 49°17' W 004°26'713.1
2017-Nov-19 18:57N 49°13' W 004°35'613.4
2017-Nov-19 18:30N 49°11' W 004°43'713.7
2017-Nov-19 18:00N 49°08' W 004°52'1013.7
2017-Nov-19 17:16N 49°02' W 005°05'413.9
2017-Nov-19 17:00N 48°59' W 005°09'714.1
2017-Nov-19 16:30N 48°55' W 005°18'714.4
2017-Nov-19 16:00N 48°51' W 005°27'714.3
2017-Nov-19 15:30N 48°47' W 005°35'714.2
2017-Nov-19 15:00N 48°40' W 005°41'714.2
2017-Nov-19 14:29N 48°34' W 005°47'713.8
2017-Nov-19 13:59N 48°29' W 005°53'713.6
2017-Nov-19 13:27N 48°22' W 005°58'613.4
2017-Nov-19 12:59N 48°17' W 006°03'713.1
2017-Nov-19 12:28N 48°11' W 006°08'812.8
2017-Nov-19 11:50N 48°04' W 006°14'1412.4
2017-Nov-19 10:41N 47°52' W 006°25'512.2
2017-Nov-19 10:15N 47°47' W 006°29'511.9
2017-Nov-19 09:50N 47°43' W 006°33'411.7
2017-Nov-19 09:28N 47°39' W 006°35'611.4
2017-Nov-19 08:58N 47°34' W 006°39'711.9
2017-Nov-19 08:22N 47°28' W 006°44'1412.7
2017-Nov-19 07:17N 47°16' W 006°54'512.7
2017-Nov-19 06:52N 47°11' W 006°58'37511.7
2017-Nov-17 22:54N 41°19' W 009°57'512.9
2017-Nov-17 22:31N 41°14' W 009°57'1012.4
2017-Nov-17 21:40N 41°03' W 009°56'412.0
2017-Nov-17 21:22N 40°59' W 009°56'612.3
2017-Nov-17 20:52N 40°53' W 009°56'712.1
2017-Nov-17 20:16N 40°46' W 009°56'312.2
2017-Nov-17 19:59N 40°43' W 009°56'612.0
2017-Nov-17 19:28N 40°37' W 009°57'611.8
2017-Nov-17 19:00N 40°31' W 009°57'612.1
2017-Nov-17 18:30N 40°25' W 009°57'1011.9
2017-Nov-17 17:41N 40°15' W 009°56'212.0
2017-Nov-17 17:30N 40°13' W 009°56'612.3
2017-Nov-17 17:00N 40°07' W 009°56'712.4
2017-Nov-17 16:26N 39°60' W 009°56'912.3
2017-Nov-17 15:42N 39°51' W 009°56'212.1
2017-Nov-17 15:31N 39°49' W 009°56'711.9
2017-Nov-17 14:57N 39°42' W 009°56'712.1
2017-Nov-17 14:22N 39°35' W 009°56'712.0
2017-Nov-17 13:46N 39°28' W 009°56'312.2
2017-Nov-17 13:30N 39°24' W 009°56'612.3
2017-Nov-17 13:01N 39°18' W 009°56'612.8
2017-Nov-17 12:31N 39°12' W 009°56'612.7
2017-Nov-17 12:01N 39°06' W 009°56'612.7
2017-Nov-17 11:31N 38°59' W 009°56'612.8
2017-Nov-17 11:01N 38°53' W 009°56'612.7
2017-Nov-17 10:30N 38°46' W 009°57'612.4
2017-Nov-17 10:00N 38°40' W 009°56'612.4
2017-Nov-17 09:30N 38°34' W 009°54'612.3
2017-Nov-17 09:01N 38°28' W 009°52'611.8
2017-Nov-17 08:30N 38°23' W 009°51'611.8
2017-Nov-17 08:01N 38°17' W 009°49'611.9
2017-Nov-17 07:31N 38°11' W 009°48'612.2
2017-Nov-17 07:00N 38°05' W 009°45'612.4
2017-Nov-17 06:30N 37°59' W 009°44'612.4
2017-Nov-17 06:00N 37°53' W 009°42'612.5
2017-Nov-17 05:30N 37°47' W 009°41'612.5
2017-Nov-17 05:00N 37°41' W 009°39'612.7
2017-Nov-17 04:31N 37°35' W 009°37'713.0
2017-Nov-17 04:00N 37°28' W 009°35'612.8
2017-Nov-17 03:30N 37°22' W 009°33'612.5
2017-Nov-17 02:59N 37°16' W 009°31'912.7
2017-Nov-17 02:19N 37°07' W 009°29'512.7
2017-Nov-17 01:53N 37°02' W 009°28'812.3
2017-Nov-17 01:12N 36°54' W 009°25'411.8
2017-Nov-17 00:52N 36°50' W 009°23'512.4
2017-Nov-17 00:28N 36°47' W 009°19'612.5
2017-Nov-16 23:59N 36°42' W 009°14'612.3
2017-Nov-16 23:30N 36°40' W 009°07'612.9
2017-Nov-16 23:01N 36°38' W 008°60'612.7
2017-Nov-16 22:30N 36°36' W 008°52'612.8
2017-Nov-16 22:00N 36°35' W 008°44'612.9
2017-Nov-16 21:30N 36°34' W 008°36'1912.4
2017-Nov-16 19:58N 36°32' W 008°12'  

Dump ship's entire track history